Time;durP1;ratioP1;P1;durP2;ratioP2;P2;SDS_P1;SDS_P2;PMS_P1;PMS_P2;Temp;Humidity;BMP_temperature;BMP_pressure;BME280_temperature;BME280_humidity;BME280_pressure;Samples;Min_cycle;Max_cycle;Signal;HPM_P1;HPM_P2
2021/08/21 00:00:45;;;;;;;2.38;1.80;;;;;;;15.69;53.54;101419.63;7988797;28;20401;-68
2021/08/21 00:04:37;;;;;;;3.50;1.95;;;;;;;15.67;53.63;101423.34;7989540;28;20513;-68
2021/08/21 00:08:28;;;;;;;3.80;2.33;;;;;;;15.63;53.82;101419.25;7994121;28;20029;-68
2021/08/21 00:12:18;;;;;;;2.60;1.95;;;;;;;15.60;53.68;101417.69;7990276;28;20029;-68
2021/08/21 00:16:09;;;;;;;9.23;2.45;;;;;;;15.56;54.07;101418.06;7990629;28;20397;-68
2021/08/21 00:20:00;;;;;;;4.63;2.00;;;;;;;15.54;53.73;101417.34;7990091;28;20028;-68
2021/08/21 00:23:50;;;;;;;2.45;1.90;;;;;;;15.49;53.85;101416.84;7990092;28;20051;-68
2021/08/21 00:27:42;;;;;;;4.43;2.22;;;;;;;15.46;53.85;101417.94;7989840;28;20672;-68
2021/08/21 00:31:32;;;;;;;2.95;1.83;;;;;;;15.44;53.95;101427.81;7988055;28;20580;-68
2021/08/21 00:35:23;;;;;;;7.85;2.65;;;;;;;15.37;53.93;101421.31;7972201;28;20048;-68
2021/08/21 00:39:14;;;;;;;3.35;1.95;;;;;;;15.32;54.02;101418.16;7986148;28;20041;-69
2021/08/21 00:43:05;;;;;;;2.28;1.90;;;;;;;15.29;54.08;101421.06;7993825;28;20033;-69
2021/08/21 00:47:00;;;;;;;2.47;1.80;;;;;;;15.31;54.03;101416.47;7995356;28;20086;-68
2021/08/21 00:50:50;;;;;;;3.97;1.85;;;;;;;15.28;53.98;101409.59;7995076;28;20076;-69
2021/08/21 00:54:42;;;;;;;2.40;1.85;;;;;;;15.24;54.03;101402.00;7994007;28;20036;-68
2021/08/21 00:58:33;;;;;;;3.25;2.05;;;;;;;15.21;54.13;101403.06;7993469;28;20033;-69
2021/08/21 01:02:24;;;;;;;1.95;1.70;;;;;;;15.16;54.14;101402.59;7993325;28;20048;-68
2021/08/21 01:06:14;;;;;;;2.85;2.10;;;;;;;15.12;54.23;101400.31;7992279;28;20098;-68
2021/08/21 01:10:10;;;;;;;2.53;1.90;;;;;;;15.12;54.12;101405.59;7980153;28;20044;-69
2021/08/21 01:14:03;;;;;;;;;;;;;;;14.96;54.13;101402.44;7999371;28;20555;-68
2021/08/21 01:17:55;;;;;;;2.50;1.90;;;;;;;15.01;54.21;101414.34;7992015;28;20393;-69
2021/08/21 01:21:46;;;;;;;5.35;1.92;;;;;;;14.97;54.01;101412.88;7991415;28;20033;-69
2021/08/21 01:25:37;;;;;;;1.85;1.60;;;;;;;14.95;54.18;101408.69;7990456;28;20103;-69
2021/08/21 01:29:30;;;;;;;2.22;1.77;;;;;;;14.93;54.09;101407.94;7983705;28;20055;-69
2021/08/21 01:33:26;;;;;;;3.67;2.10;;;;;;;14.88;54.14;101416.22;7992210;28;20082;-68
2021/08/21 01:37:20;;;;;;;3.70;1.60;;;;;;;14.86;54.17;101412.03;7988766;28;20037;-69
2021/08/21 01:41:34;;;;;;;3.08;1.73;;;;;;;14.82;54.25;101403.47;7992555;28;20052;-69
2021/08/21 01:45:25;;;;;;;2.15;1.60;;;;;;;14.75;54.33;101399.63;7991960;28;20623;-69
2021/08/21 01:49:21;;;;;;;4.18;2.00;;;;;;;14.73;54.40;101397.09;7992315;28;20025;-68
2021/08/21 01:53:15;;;;;;;4.45;1.90;;;;;;;14.72;54.42;101400.69;7990566;28;20044;-69
2021/08/21 01:57:07;;;;;;;5.60;1.90;;;;;;;14.68;54.32;101398.38;7991437;28;20460;-68
2021/08/21 02:01:14;;;;;;;4.50;1.80;;;;;;;14.63;54.66;101388.13;7990549;28;20032;-69
2021/08/21 02:05:25;;;;;;;2.17;1.50;;;;;;;14.63;54.64;101396.06;7991799;28;20029;-69
2021/08/21 02:09:18;;;;;;;1.63;1.40;;;;;;;14.61;54.45;101391.88;7985847;28;20029;-69
2021/08/21 02:13:09;;;;;;;1.40;1.30;;;;;;;14.57;54.53;101407.13;7985005;28;20103;-69
2021/08/21 02:17:02;;;;;;;2.90;1.95;;;;;;;14.54;54.62;101391.50;7990723;28;20033;-69
2021/08/21 02:20:54;;;;;;;2.80;1.42;;;;;;;14.50;54.72;101395.31;7990916;28;20032;-69
2021/08/21 02:24:52;;;;;;;1.95;1.45;;;;;;;14.48;54.54;101404.31;7991773;28;20033;-69
2021/08/21 02:28:42;;;;;;;2.25;1.40;;;;;;;14.44;54.70;101398.41;7985377;28;20592;-69
2021/08/21 02:32:36;;;;;;;3.53;1.50;;;;;;;14.41;54.71;101393.31;7974548;28;20033;-69
2021/08/21 02:36:28;;;;;;;4.60;1.42;;;;;;;14.38;54.63;101395.34;7989758;28;20452;-68
2021/08/21 02:40:19;;;;;;;1.65;1.30;;;;;;;14.31;54.71;101384.38;7989256;28;20020;-68
2021/08/21 02:44:09;;;;;;;3.92;1.60;;;;;;;14.32;54.81;101394.00;7989894;28;20041;-69
2021/08/21 02:48:00;;;;;;;2.55;1.60;;;;;;;14.29;54.76;101388.94;7989053;28;20021;-68
2021/08/21 02:51:52;;;;;;;3.15;1.55;;;;;;;14.26;54.65;101387.34;7989929;28;20043;-69
2021/08/21 02:55:43;;;;;;;4.40;1.40;;;;;;;14.23;54.68;101378.81;7988973;28;20113;-68
2021/08/21 02:59:34;;;;;;;2.83;1.70;;;;;;;14.19;54.54;101383.47;7988511;28;20044;-68
2021/08/21 03:03:27;;;;;;;2.78;1.55;;;;;;;14.16;54.85;101383.72;7973535;28;20099;-69
2021/08/21 03:07:20;;;;;;;2.25;1.50;;;;;;;14.15;54.76;101383.81;7989587;28;20049;-68
2021/08/21 03:11:15;;;;;;;2.03;1.67;;;;;;;14.13;54.98;101383.09;7989731;28;20112;-68
2021/08/21 03:15:31;;;;;;;2.38;1.52;;;;;;;14.08;54.88;101387.88;7992373;28;20028;-69
2021/08/21 03:19:23;;;;;;;3.42;1.80;;;;;;;14.06;54.81;101393.25;7979896;28;20035;-69
2021/08/21 03:23:15;;;;;;;2.47;1.38;;;;;;;14.05;55.06;101396.84;7988329;28;20486;-68
2021/08/21 03:27:06;;;;;;;1.45;1.30;;;;;;;13.98;54.87;101392.97;7988073;28;20035;-68
2021/08/21 03:30:58;;;;;;;4.95;1.60;;;;;;;13.94;55.14;101382.72;7971419;28;20033;-69
2021/08/21 03:34:50;;;;;;;3.72;1.67;;;;;;;13.97;55.08;101385.13;7987899;28;20045;-69
2021/08/21 03:38:41;;;;;;;6.80;2.28;;;;;;;13.98;55.30;101392.09;7992195;28;20036;-69
2021/08/21 03:42:40;;;;;;;3.08;2.42;;;;;;;13.99;55.29;101391.16;7987728;28;20028;-69
2021/08/21 03:46:34;;;;;;;4.60;1.50;;;;;;;13.98;55.48;101392.09;7987866;28;20273;-69
2021/08/21 03:50:26;;;;;;;2.40;1.80;;;;;;;14.04;55.59;101394.31;7987259;28;20117;-69
2021/08/21 03:54:18;;;;;;;4.30;1.88;;;;;;;14.07;55.89;101391.44;7989413;28;20108;-68
2021/08/21 03:58:10;;;;;;;2.00;1.70;;;;;;;14.07;56.10;101387.03;7989055;28;20547;-68
2021/08/21 04:02:01;;;;;;;3.22;1.75;;;;;;;14.11;56.01;101401.69;7990442;28;20041;-68
2021/08/21 04:05:56;;;;;;;3.35;1.67;;;;;;;14.13;56.18;101386.56;7984310;28;20040;-68
2021/08/21 04:09:47;;;;;;;2.35;1.77;;;;;;;14.17;56.20;101395.94;7988580;28;20037;-69
2021/08/21 04:13:38;;;;;;;2.58;1.83;;;;;;;14.20;56.43;101387.81;7992494;28;20035;-68
2021/08/21 04:17:29;;;;;;;2.00;1.60;;;;;;;14.24;56.40;101394.56;7994511;28;20052;-68
2021/08/21 04:21:20;;;;;;;2.45;1.88;;;;;;;14.26;56.61;101382.06;7995104;28;20398;-68
2021/08/21 04:25:11;;;;;;;3.80;2.20;;;;;;;14.29;56.74;101378.38;7995169;28;20048;-68
2021/08/21 04:29:02;;;;;;;6.55;1.67;;;;;;;14.32;56.89;101380.78;7994812;28;20037;-68
2021/08/21 04:32:54;;;;;;;3.33;2.25;;;;;;;14.34;56.99;101387.63;7993478;28;20036;-68
2021/08/21 04:36:48;;;;;;;5.30;1.92;;;;;;;14.36;57.07;101391.03;7993792;28;20032;-69
2021/08/21 04:40:44;;;;;;;4.20;1.55;;;;;;;14.38;56.92;101384.78;7978330;28;20036;-68
2021/08/21 04:44:34;;;;;;;2.35;1.67;;;;;;;14.41;56.92;101384.53;7973199;28;20147;-68
2021/08/21 04:48:25;;;;;;;3.53;1.63;;;;;;;14.40;57.05;101377.56;7985855;28;20183;-68
2021/08/21 04:52:17;;;;;;;2.60;1.90;;;;;;;14.44;57.16;101392.28;7992685;28;20043;-69
2021/08/21 04:56:08;;;;;;;3.25;1.45;;;;;;;14.46;57.23;101393.88;7988463;28;20056;-69
2021/08/21 05:00:18;;;;;;;2.85;1.75;;;;;;;14.47;57.10;101390.25;7995002;28;20047;-68
2021/08/21 05:04:27;;;;;;;1.92;1.33;;;;;;;14.51;57.48;101396.13;7986588;28;20033;-68
2021/08/21 05:08:18;;;;;;;2.42;1.80;;;;;;;14.53;57.52;101394.25;7993272;28;20108;-68
2021/08/21 05:12:15;;;;;;;2.47;1.73;;;;;;;14.53;57.47;101392.44;7993727;28;20798;-67
2021/08/21 05:16:14;;;;;;;4.85;1.75;;;;;;;14.57;57.84;101385.97;7990844;28;20030;-68
2021/08/21 05:20:43;;;;;;;2.28;1.65;;;;;;;14.61;57.56;101402.44;7960084;28;20036;-68
2021/08/21 05:24:39;;;;;;;2.63;1.60;;;;;;;14.65;57.56;101393.31;7970970;28;20037;-68
2021/08/21 05:28:30;;;;;;;2.85;1.77;;;;;;;14.65;57.85;101388.03;7982847;28;20043;-68
2021/08/21 05:32:21;;;;;;;1.98;1.58;;;;;;;14.74;57.82;101396.13;7988110;28;20037;-68
2021/08/21 05:36:11;;;;;;;6.45;1.90;;;;;;;14.80;57.92;101400.09;7970800;28;20029;-67
2021/08/21 05:40:02;;;;;;;2.60;1.77;;;;;;;14.81;58.12;101389.41;7978059;28;20021;-67
2021/08/21 05:43:54;;;;;;;2.65;1.90;;;;;;;14.93;58.19;101394.72;7986705;28;20456;-67
2021/08/21 05:47:45;;;;;;;2.00;1.65;;;;;;;15.01;58.31;101387.88;8000789;28;20041;-67
2021/08/21 05:51:36;;;;;;;4.35;1.73;;;;;;;15.12;58.12;101389.72;7977311;28;20163;-67
2021/08/21 05:55:27;;;;;;;2.83;1.63;;;;;;;15.20;58.16;101398.75;7980946;28;20543;-67
2021/08/21 05:59:24;;;;;;;3.03;2.13;;;;;;;15.28;58.31;101401.66;7988132;28;20068;-67
2021/08/21 06:03:18;;;;;;;3.25;1.75;;;;;;;15.38;58.29;101399.16;7969398;28;20099;-67
2021/08/21 06:07:09;;;;;;;3.15;1.77;;;;;;;15.46;58.49;101407.34;7996141;28;20048;-67
2021/08/21 06:11:00;;;;;;;3.53;1.83;;;;;;;15.53;58.44;101410.38;7971419;28;20441;-67
2021/08/21 06:14:54;;;;;;;3.35;2.15;;;;;;;15.55;58.20;101401.31;7978045;28;20044;-67
2021/08/21 06:18:45;;;;;;;3.20;1.85;;;;;;;15.68;58.36;101407.34;7986868;28;20034;-67
2021/08/21 06:22:36;;;;;;;3.00;1.98;;;;;;;15.78;58.53;101414.56;7976204;28;20030;-67
2021/08/21 06:26:28;;;;;;;2.58;1.88;;;;;;;15.88;58.32;101411.03;7975324;28;20033;-67
2021/08/21 06:30:18;;;;;;;4.20;2.00;;;;;;;16.07;58.40;101423.69;7972333;28;20505;-67
2021/08/21 06:34:09;;;;;;;4.18;2.58;;;;;;;16.31;58.46;101412.91;7985216;28;20029;-67
2021/08/21 06:38:00;;;;;;;6.35;2.70;;;;;;;16.83;58.63;101404.13;7980522;28;20040;-67
2021/08/21 06:41:51;;;;;;;2.65;2.20;;;;;;;17.59;58.65;101401.09;8006279;28;20490;-67
2021/08/21 06:45:41;;;;;;;4.45;2.50;;;;;;;18.66;58.58;101395.88;7994668;28;20410;-67
2021/08/21 06:49:32;;;;;;;8.63;3.03;;;;;;;19.62;57.76;101398.31;7987606;28;20036;-67
2021/08/21 06:53:24;;;;;;;3.83;2.67;;;;;;;20.55;57.15;101406.03;7998911;28;20473;-68
2021/08/21 06:57:15;;;;;;;6.68;2.92;;;;;;;21.44;56.04;101393.34;7979582;28;20495;-67
2021/08/21 07:01:09;;;;;;;5.68;2.50;;;;;;;22.31;55.17;101387.63;7975172;28;20059;-67
2021/08/21 07:05:00;;;;;;;3.20;2.38;;;;;;;23.03;54.20;101388.66;7975523;28;20029;-67
2021/08/21 07:08:51;;;;;;;4.25;2.97;;;;;;;23.64;53.49;101382.63;7972127;28;20412;-67
2021/08/21 07:12:41;;;;;;;2.67;1.95;;;;;;;24.24;52.66;101393.53;7980405;28;20159;-68
2021/08/21 07:16:32;;;;;;;3.97;2.42;;;;;;;24.74;52.20;101386.78;7974822;28;20102;-67
2021/08/21 07:20:22;;;;;;;3.90;2.38;;;;;;;25.14;51.64;101381.06;7981009;28;20262;-68
2021/08/21 07:24:13;;;;;;;3.22;2.10;;;;;;;25.50;51.11;101383.03;7965053;28;20047;-69
2021/08/21 07:28:04;;;;;;;7.22;1.95;;;;;;;25.79;50.63;101372.22;7977506;28;20397;-67
2021/08/21 07:31:55;;;;;;;3.83;1.90;;;;;;;26.19;49.67;101365.44;7961574;28;20025;-66
2021/08/21 07:35:46;;;;;;;3.92;2.00;;;;;;;26.64;48.57;101374.19;7966161;28;20037;-66
2021/08/21 07:39:37;;;;;;;5.40;2.10;;;;;;;27.07;47.88;101373.03;7965197;28;20120;-64
2021/08/21 07:43:27;;;;;;;4.40;1.92;;;;;;;27.46;46.73;101375.16;7963769;28;20037;-65
2021/08/21 07:47:18;;;;;;;3.05;1.90;;;;;;;27.75;45.99;101376.78;7966428;28;20040;-66
2021/08/21 07:51:08;;;;;;;1.85;1.60;;;;;;;28.03;45.45;101380.19;7970700;28;20024;-66
2021/08/21 07:54:59;;;;;;;2.80;2.10;;;;;;;28.29;44.76;101382.97;7971113;28;20389;-64
2021/08/21 07:58:50;;;;;;;5.55;2.42;;;;;;;28.53;44.24;101389.63;7970126;28;20131;-68
2021/08/21 08:02:44;;;;;;;2.97;2.25;;;;;;;28.73;43.41;101395.06;7966702;28;21357;-68
2021/08/21 08:06:35;;;;;;;8.18;2.63;;;;;;;28.86;43.46;101389.66;7969606;28;20036;-67
2021/08/21 08:10:26;;;;;;;4.45;2.78;;;;;;;28.98;42.86;101387.13;7970791;28;20041;-68
2021/08/21 08:14:16;;;;;;;6.00;2.80;;;;;;;28.86;42.57;101386.94;7970922;28;20036;-68
2021/08/21 08:18:07;;;;;;;5.75;2.13;;;;;;;28.70;42.66;101387.38;7969608;28;20033;-69
2021/08/21 08:21:58;;;;;;;5.78;3.05;;;;;;;28.26;43.16;101387.91;7969021;28;20025;-68
2021/08/21 08:25:49;;;;;;;3.95;2.25;;;;;;;27.72;43.51;101382.56;7968385;28;20408;-68
2021/08/21 08:29:39;;;;;;;5.45;2.80;;;;;;;27.24;44.29;101387.06;7968538;28;20490;-68
2021/08/21 08:33:30;;;;;;;2.97;2.22;;;;;;;26.92;44.64;101391.19;7966572;28;20036;-69
2021/08/21 08:37:21;;;;;;;3.53;2.75;;;;;;;26.58;44.52;101394.66;7967872;28;20703;-69
2021/08/21 08:41:12;;;;;;;5.22;2.63;;;;;;;26.29;44.77;101390.19;7970096;28;20029;-69
2021/08/21 08:45:02;;;;;;;3.42;2.47;;;;;;;26.12;44.99;101388.78;7970037;28;20035;-68
2021/08/21 08:48:54;;;;;;;3.15;2.20;;;;;;;26.00;45.43;101385.75;7968564;28;20044;-68
2021/08/21 08:52:44;;;;;;;4.63;2.17;;;;;;;25.87;45.49;101385.56;7969217;28;20057;-68
2021/08/21 08:56:35;;;;;;;4.38;2.10;;;;;;;25.81;45.48;101389.00;7969939;28;20037;-68
2021/08/21 09:00:27;;;;;;;5.15;1.92;;;;;;;25.66;45.34;101394.44;7962991;28;21437;-68
2021/08/21 09:04:24;;;;;;;2.67;1.95;;;;;;;25.58;45.48;101394.53;7967314;28;20043;-67
2021/08/21 09:08:26;;;;;;;2.50;1.65;;;;;;;25.49;45.68;101384.88;7968167;28;20040;-69
2021/08/21 09:12:24;;;;;;;3.92;2.10;;;;;;;25.42;45.33;101380.41;7969864;28;20434;-68
2021/08/21 09:16:27;;;;;;;3.03;2.00;;;;;;;25.30;45.83;101376.53;7980188;28;20041;-69
2021/08/21 09:20:17;;;;;;;4.43;2.60;;;;;;;25.25;45.66;101374.38;7971466;28;20113;-68
2021/08/21 09:24:22;;;;;;;3.35;2.30;;;;;;;25.16;45.60;101378.19;7973883;28;20026;-68
2021/08/21 09:28:22;;;;;;;3.10;1.88;;;;;;;25.09;45.29;101377.25;7973765;28;20033;-67
2021/08/21 09:32:13;;;;;;;3.13;2.05;;;;;;;25.00;45.19;101367.59;7971345;28;20144;-68
2021/08/21 09:36:05;;;;;;;3.10;1.85;;;;;;;24.96;45.55;101364.47;7977866;28;20121;-68
2021/08/21 09:40:03;;;;;;;3.72;1.95;;;;;;;24.89;44.80;101366.22;7981036;28;20490;-68
2021/08/21 09:44:08;;;;;;;3.10;1.80;;;;;;;24.76;44.94;101355.22;7977998;28;20041;-68
2021/08/21 09:48:01;;;;;;;6.82;2.30;;;;;;;24.79;44.79;101379.03;7971363;28;20033;-68
2021/08/21 09:51:51;;;;;;;2.92;1.98;;;;;;;24.72;44.40;101372.72;7970263;28;20076;-68
2021/08/21 09:55:42;;;;;;;3.03;2.00;;;;;;;24.67;44.62;101369.75;7970346;28;20025;-68
2021/08/21 09:59:37;;;;;;;2.38;1.88;;;;;;;24.62;44.77;101369.44;7975469;28;20389;-68
2021/08/21 10:03:28;;;;;;;2.35;1.88;;;;;;;24.58;44.62;101365.44;7976212;28;20029;-68
2021/08/21 10:07:19;;;;;;;2.88;2.30;;;;;;;24.53;44.15;101374.06;7974663;28;20456;-67
2021/08/21 10:11:11;;;;;;;6.20;2.60;;;;;;;24.49;44.40;101363.84;7976495;28;20091;-68
2021/08/21 10:15:03;;;;;;;3.35;2.40;;;;;;;24.45;44.13;101363.38;7967486;28;20053;-68
2021/08/21 10:18:54;;;;;;;4.63;2.40;;;;;;;24.43;44.16;101364.59;7980864;28;20060;-67
2021/08/21 10:22:45;;;;;;;6.70;2.33;;;;;;;24.41;44.66;101362.06;7975113;28;20586;-67
2021/08/21 10:26:40;;;;;;;3.90;1.98;;;;;;;24.41;44.92;101359.38;7966391;28;20025;-67
2021/08/21 10:30:42;;;;;;;4.32;2.35;;;;;;;24.44;44.36;101363.59;7965499;28;20052;-67
2021/08/21 10:34:52;;;;;;;3.38;2.15;;;;;;;24.42;44.73;101360.22;7968375;28;20036;-68
2021/08/21 10:38:43;;;;;;;4.05;2.40;;;;;;;24.43;44.05;101346.63;7971942;28;20506;-68
2021/08/21 10:42:36;;;;;;;3.47;2.42;;;;;;;24.43;44.44;101345.78;7966514;28;20033;-69
2021/08/21 10:46:29;;;;;;;3.38;2.10;;;;;;;24.42;44.33;101344.94;7967833;28;20092;-68
2021/08/21 10:50:30;;;;;;;4.32;2.08;;;;;;;24.44;44.10;101348.31;7964119;28;20394;-68
2021/08/21 10:54:26;;;;;;;3.88;1.83;;;;;;;24.46;44.21;101345.41;7963640;28;20763;-69
2021/08/21 10:58:19;;;;;;;2.40;1.83;;;;;;;24.47;44.35;101342.56;7967804;28;20040;-68
2021/08/21 11:02:26;;;;;;;3.05;1.67;;;;;;;24.46;44.23;101332.00;7964396;28;20120;-69
2021/08/21 11:06:27;;;;;;;2.47;1.50;;;;;;;24.50;43.93;101342.19;7964741;28;20057;-69
2021/08/21 11:10:22;;;;;;;2.88;1.60;;;;;;;24.50;43.92;101334.13;7962266;28;20034;-69
2021/08/21 11:14:19;;;;;;;5.72;2.13;;;;;;;24.51;43.80;101330.44;7965003;28;20053;-69
2021/08/21 11:18:20;;;;;;;4.80;2.33;;;;;;;24.49;44.03;101334.31;7964820;28;20044;-68
2021/08/21 11:22:20;;;;;;;2.53;1.90;;;;;;;24.49;43.52;101323.56;7964556;28;20030;-68
2021/08/21 11:26:22;;;;;;;2.35;1.63;;;;;;;24.49;43.71;101319.03;7965313;28;20041;-68
2021/08/21 11:30:18;;;;;;;6.28;1.38;;;;;;;24.50;43.57;101311.81;7963478;28;20390;-69
2021/08/21 11:34:09;;;;;;;2.55;1.98;;;;;;;24.48;43.70;101306.66;7965215;28;20670;-69
2021/08/21 11:38:08;;;;;;;3.55;2.03;;;;;;;24.49;43.46;101302.91;7966602;28;20041;-68
2021/08/21 11:41:59;;;;;;;2.65;1.80;;;;;;;24.49;43.06;101289.50;7965649;28;20067;-68
2021/08/21 11:45:50;;;;;;;2.80;1.90;;;;;;;24.48;43.15;101303.97;7965464;28;20029;-68
2021/08/21 11:49:41;;;;;;;2.63;1.80;;;;;;;24.47;43.31;101291.53;7964612;28;20553;-69
2021/08/21 11:53:36;;;;;;;2.42;1.58;;;;;;;24.46;43.29;101291.72;7964830;28;20086;-69
2021/08/21 11:57:41;;;;;;;2.63;1.95;;;;;;;24.49;43.34;101286.81;7966170;28;20056;-68
2021/08/21 12:01:34;;;;;;;5.40;1.90;;;;;;;24.52;43.14;101280.25;7961379;28;20075;-69
2021/08/21 12:05:33;;;;;;;2.65;1.60;;;;;;;24.52;43.12;101283.78;7965594;28;20029;-69
2021/08/21 12:09:25;;;;;;;2.03;1.63;;;;;;;24.54;43.12;101271.00;7963794;28;20055;-69
2021/08/21 12:13:19;;;;;;;1.38;1.27;;;;;;;24.56;43.14;101277.03;7962751;28;20513;-69
2021/08/21 12:17:10;;;;;;;1.42;1.25;;;;;;;24.54;43.04;101265.63;7963685;28;20390;-69
2021/08/21 12:21:01;;;;;;;3.55;1.50;;;;;;;24.59;42.88;101265.91;7961115;28;20791;-69
2021/08/21 12:24:54;;;;;;;2.20;1.20;;;;;;;24.61;43.15;101263.06;7964380;28;20103;-69
2021/08/21 12:28:46;;;;;;;1.80;1.42;;;;;;;24.63;43.16;101253.78;7963654;28;20719;-69
2021/08/21 12:32:37;;;;;;;1.95;1.25;;;;;;;24.63;42.80;101251.09;7960788;28;20063;-68
2021/08/21 12:36:28;;;;;;;6.88;1.60;;;;;;;24.64;42.36;101250.09;7971146;28;20032;-69
2021/08/21 12:40:18;;;;;;;2.25;1.30;;;;;;;24.66;42.86;101250.72;7970892;28;20049;-69
2021/08/21 12:44:17;;;;;;;1.73;1.40;;;;;;;24.59;42.28;101240.91;7970811;28;20033;-68
2021/08/21 12:48:09;;;;;;;1.73;1.42;;;;;;;24.61;42.20;101247.75;7970737;28;20033;-68
2021/08/21 12:52:25;;;;;;;1.90;1.60;;;;;;;24.59;42.27;101246.28;7969902;28;20107;-68
2021/08/21 12:56:16;;;;;;;1.45;1.00;;;;;;;24.62;42.28;101248.59;7969866;28;20045;-69
2021/08/21 13:00:12;;;;;;;1.98;1.23;;;;;;;24.64;42.07;101241.19;7968798;28;20032;-69
2021/08/21 13:04:08;;;;;;;4.10;1.50;;;;;;;24.67;42.06;101240.81;7967151;28;20028;-69
2021/08/21 13:08:05;;;;;;;1.63;1.30;;;;;;;24.67;41.59;101230.91;7967666;28;20068;-68
2021/08/21 13:11:57;;;;;;;1.38;1.27;;;;;;;24.71;41.63;101226.81;7968742;28;20537;-69
2021/08/21 13:15:47;;;;;;;3.05;1.50;;;;;;;24.79;41.38;101229.41;7968325;28;20175;-69
2021/08/21 13:19:39;;;;;;;1.85;1.60;;;;;;;24.86;41.82;101228.69;7968353;28;20593;-69
2021/08/21 13:23:30;;;;;;;1.98;1.48;;;;;;;24.93;41.55;101224.25;7965191;28;20730;-68
2021/08/21 13:27:21;;;;;;;1.80;1.27;;;;;;;24.97;41.68;101220.19;7968021;28;20530;-69
2021/08/21 13:31:11;;;;;;;2.13;1.73;;;;;;;25.03;41.56;101227.47;7965108;28;20496;-69
2021/08/21 13:35:02;;;;;;;2.33;1.55;;;;;;;25.04;41.52;101226.47;7966016;28;20539;-69
2021/08/21 13:38:53;;;;;;;2.78;1.42;;;;;;;25.02;41.09;101228.50;7968756;28;20036;-69
2021/08/21 13:42:44;;;;;;;3.50;1.30;;;;;;;25.01;41.71;101219.63;7967195;28;20025;-68
2021/08/21 13:46:35;;;;;;;1.55;1.25;;;;;;;25.01;41.32;101206.19;7968094;28;20393;-69
2021/08/21 13:50:25;;;;;;;4.18;1.40;;;;;;;25.01;41.55;101200.81;7969543;28;20041;-69
2021/08/21 13:54:16;;;;;;;2.05;1.35;;;;;;;25.04;41.28;101207.66;7966334;28;20037;-69
2021/08/21 13:58:07;;;;;;;5.80;1.25;;;;;;;25.02;40.97;101207.00;7969481;28;20022;-69
2021/08/21 14:01:57;;;;;;;1.77;1.30;;;;;;;25.00;41.10;101204.50;7962422;28;20029;-69
2021/08/21 14:05:48;;;;;;;2.72;1.90;;;;;;;24.95;40.56;101206.06;7967503;28;20075;-68
2021/08/21 14:09:40;;;;;;;2.58;1.80;;;;;;;24.91;41.00;101204.78;7966932;28;20136;-69
2021/08/21 14:13:30;;;;;;;2.13;1.33;;;;;;;24.91;41.16;101194.88;7969517;28;20125;-69
2021/08/21 14:17:21;;;;;;;3.03;2.10;;;;;;;24.88;41.03;101183.69;7969023;28;20038;-69
2021/08/21 14:21:12;;;;;;;2.60;1.60;;;;;;;24.88;40.68;101183.69;7965513;28;20560;-69
2021/08/21 14:25:03;;;;;;;3.10;1.48;;;;;;;24.90;41.22;101182.44;7965992;28;20045;-69
2021/08/21 14:28:54;;;;;;;2.60;1.70;;;;;;;24.83;40.67;101165.38;7966940;28;20045;-68
2021/08/21 14:32:46;;;;;;;3.80;1.70;;;;;;;24.93;40.68;101175.88;7967399;28;20046;-66
2021/08/21 14:36:37;;;;;;;2.17;1.83;;;;;;;24.93;40.48;101171.34;7966209;28;20549;-66
2021/08/21 14:40:29;;;;;;;3.33;1.40;;;;;;;24.93;40.44;101168.66;7967750;28;20028;-67
2021/08/21 14:44:19;;;;;;;1.95;1.17;;;;;;;24.92;40.75;101164.31;7965742;28;20041;-66
2021/08/21 14:48:10;;;;;;;1.85;1.50;;;;;;;24.96;40.65;101160.22;7967409;28;20044;-66
2021/08/21 14:52:02;;;;;;;1.77;1.40;;;;;;;24.98;40.09;101166.25;7964149;28;20383;-66
2021/08/21 14:55:53;;;;;;;2.63;1.50;;;;;;;25.00;40.97;101160.66;7965275;28;20048;-67
2021/08/21 14:59:43;;;;;;;1.67;1.40;;;;;;;24.99;40.76;101169.75;7966745;28;20048;-67
2021/08/21 15:03:34;;;;;;;2.97;1.67;;;;;;;24.99;40.83;101148.25;7963114;28;20044;-66
2021/08/21 15:07:24;;;;;;;1.35;1.08;;;;;;;25.02;41.20;101147.88;7965089;28;20029;-67
2021/08/21 15:11:15;;;;;;;1.85;1.58;;;;;;;25.05;40.76;101148.34;7964925;28;20040;-67
2021/08/21 15:15:06;;;;;;;1.98;1.55;;;;;;;25.08;40.65;101147.13;7963069;28;20017;-67
2021/08/21 15:19:04;;;;;;;3.10;1.90;;;;;;;25.08;40.76;101147.94;7966596;28;20040;-66
2021/08/21 15:22:55;;;;;;;2.20;1.50;;;;;;;25.06;40.32;101135.75;7964993;28;20061;-66
2021/08/21 15:26:46;;;;;;;2.42;1.10;;;;;;;25.08;40.56;101147.13;7966110;28;20040;-67
2021/08/21 15:30:39;;;;;;;2.83;1.85;;;;;;;25.07;40.20;101145.44;7960144;28;20091;-67
2021/08/21 15:34:30;;;;;;;2.00;1.33;;;;;;;25.03;40.37;101125.34;7963568;28;20032;-67
2021/08/21 15:38:20;;;;;;;2.10;1.50;;;;;;;25.01;40.00;101128.25;7965455;28;20037;-67
2021/08/21 15:42:14;;;;;;;2.40;1.55;;;;;;;24.91;40.38;101100.00;7965069;28;20075;-67
2021/08/21 15:46:09;;;;;;;2.35;1.50;;;;;;;24.94;40.37;101110.38;7963655;28;20041;-67
2021/08/21 15:50:00;;;;;;;3.97;1.55;;;;;;;24.94;40.30;101115.75;7965008;28;20041;-66
2021/08/21 15:53:50;;;;;;;2.30;1.38;;;;;;;24.91;39.88;101110.75;7961480;28;20039;-67
2021/08/21 15:57:43;;;;;;;2.17;1.52;;;;;;;24.89;39.92;101110.09;7965231;28;20041;-67
2021/08/21 16:01:33;;;;;;;2.28;1.30;;;;;;;24.82;40.38;101098.44;7960874;28;20079;-67
2021/08/21 16:05:25;;;;;;;5.28;1.45;;;;;;;24.82;40.33;101101.13;7964969;28;21170;-67
2021/08/21 16:09:15;;;;;;;1.98;1.42;;;;;;;24.77;40.59;101107.91;7968522;28;20029;-67
2021/08/21 16:13:08;;;;;;;2.30;1.73;;;;;;;24.76;40.30;101095.47;7965437;28;20056;-66
2021/08/21 16:16:58;;;;;;;5.70;1.80;;;;;;;24.77;40.33;101105.19;7969008;28;20037;-66
2021/08/21 16:20:49;;;;;;;1.35;1.25;;;;;;;24.75;40.17;101096.50;7970802;28;20033;-67
2021/08/21 16:24:39;;;;;;;1.77;1.20;;;;;;;24.72;40.48;101096.88;7967999;28;20044;-66
2021/08/21 16:28:31;;;;;;;2.67;1.70;;;;;;;24.69;40.33;101091.84;7967573;28;20029;-67
2021/08/21 16:32:21;;;;;;;5.45;1.40;;;;;;;24.67;40.68;101098.44;7969221;28;20678;-67
2021/08/21 16:36:12;;;;;;;2.50;1.60;;;;;;;24.63;40.12;101095.31;7969255;28;20030;-66
2021/08/21 16:40:03;;;;;;;2.50;1.63;;;;;;;24.60;40.60;101089.47;7970797;28;20044;-66
2021/08/21 16:43:54;;;;;;;3.67;1.40;;;;;;;24.57;40.36;101088.00;7969325;28;20874;-67
2021/08/21 16:47:44;;;;;;;2.28;1.75;;;;;;;24.53;40.61;101085.88;7968327;28;20605;-66
2021/08/21 16:51:35;;;;;;;3.00;1.63;;;;;;;24.50;40.10;101081.72;7968858;28;20034;-68
2021/08/21 16:55:25;;;;;;;4.30;2.05;;;;;;;24.43;40.55;101079.97;7969292;28;20029;-66
2021/08/21 16:59:16;;;;;;;1.67;1.40;;;;;;;24.37;40.62;101086.06;7971721;28;20729;-66
2021/08/21 17:03:06;;;;;;;2.03;1.45;;;;;;;24.34;40.84;101081.91;7962179;28;20600;-67
2021/08/21 17:06:57;;;;;;;2.83;2.03;;;;;;;24.31;41.00;101076.94;7967863;28;20094;-67
2021/08/21 17:10:48;;;;;;;1.98;1.52;;;;;;;24.21;41.19;101073.66;7968793;28;21164;-66
2021/08/21 17:14:39;;;;;;;1.63;1.50;;;;;;;24.21;41.86;101084.38;7967295;28;20045;-66
2021/08/21 17:18:29;;;;;;;2.15;1.70;;;;;;;24.14;42.19;101070.06;7968249;28;20049;-66
2021/08/21 17:22:21;;;;;;;2.67;1.83;;;;;;;24.06;42.28;101072.81;7968189;28;20037;-67
2021/08/21 17:26:12;;;;;;;3.28;1.95;;;;;;;24.05;42.90;101076.50;7969929;28;20033;-72
2021/08/21 17:30:05;;;;;;;1.92;1.50;;;;;;;23.96;42.96;101074.94;7968926;28;20049;-65
2021/08/21 17:33:55;;;;;;;2.50;1.60;;;;;;;23.92;43.40;101076.31;7965996;28;20040;-66
2021/08/21 17:37:46;;;;;;;2.60;2.20;;;;;;;23.88;43.37;101083.91;7968329;28;20045;-67
2021/08/21 17:41:37;;;;;;;2.42;1.75;;;;;;;23.82;43.52;101082.78;7971051;28;20478;-66
2021/08/21 17:45:28;;;;;;;4.70;1.60;;;;;;;23.78;43.70;101094.88;7971589;28;20095;-66
2021/08/21 17:49:19;;;;;;;1.50;1.40;;;;;;;23.73;43.82;101094.63;7967460;28;20034;-66
2021/08/21 17:53:09;;;;;;;2.90;1.90;;;;;;;23.68;43.73;101093.47;7968418;28;20045;-66
2021/08/21 17:57:03;;;;;;;2.45;1.38;;;;;;;23.61;44.21;101093.38;7967325;28;20815;-67
2021/08/21 18:00:53;;;;;;;3.35;1.83;;;;;;;23.56;44.32;101098.44;7968763;28;20482;-67